sensor_id;sensor_type;location;lat;lon;timestamp;P1;durP1;ratioP1;P2;durP2;ratioP2
31798;SDS011;18374;51.136;3.502;2022-10-16T00:01:47;3.13;;;1.38;;
31798;SDS011;18374;51.136;3.502;2022-10-16T00:04:14;3.03;;;1.30;;
31798;SDS011;18374;51.136;3.502;2022-10-16T00:06:44;3.70;;;1.40;;
31798;SDS011;18374;51.136;3.502;2022-10-16T00:09:13;1.60;;;1.20;;
31798;SDS011;18374;51.136;3.502;2022-10-16T00:11:42;1.23;;;1.13;;
31798;SDS011;18374;51.136;3.502;2022-10-16T00:14:11;1.25;;;1.10;;
31798;SDS011;18374;51.136;3.502;2022-10-16T00:16:41;1.58;;;0.85;;
31798;SDS011;18374;51.136;3.502;2022-10-16T00:19:10;3.00;;;1.10;;
31798;SDS011;18374;51.136;3.502;2022-10-16T00:21:39;1.65;;;1.13;;
31798;SDS011;18374;51.136;3.502;2022-10-16T00:24:08;4.20;;;1.13;;
31798;SDS011;18374;51.136;3.502;2022-10-16T00:26:37;2.00;;;1.02;;
31798;SDS011;18374;51.136;3.502;2022-10-16T00:29:06;1.45;;;1.05;;
31798;SDS011;18374;51.136;3.502;2022-10-16T00:31:34;1.63;;;1.15;;
31798;SDS011;18374;51.136;3.502;2022-10-16T00:34:02;3.45;;;1.40;;
31798;SDS011;18374;51.136;3.502;2022-10-16T00:36:31;3.72;;;1.10;;
31798;SDS011;18374;51.136;3.502;2022-10-16T00:39:01;1.58;;;1.27;;
31798;SDS011;18374;51.136;3.502;2022-10-16T00:41:32;0.95;;;0.90;;
31798;SDS011;18374;51.136;3.502;2022-10-16T00:44:04;2.70;;;1.20;;
31798;SDS011;18374;51.136;3.502;2022-10-16T00:47:09;4.68;;;1.42;;
31798;SDS011;18374;51.136;3.502;2022-10-16T00:49:53;2.17;;;1.20;;
31798;SDS011;18374;51.136;3.502;2022-10-16T00:52:28;2.65;;;1.58;;
31798;SDS011;18374;51.136;3.502;2022-10-16T00:55:05;3.65;;;1.73;;
31798;SDS011;18374;51.136;3.502;2022-10-16T00:57:34;2.55;;;1.45;;
31798;SDS011;18374;51.136;3.502;2022-10-16T01:00:06;2.35;;;1.35;;
31798;SDS011;18374;51.136;3.502;2022-10-16T01:02:40;3.72;;;1.40;;
31798;SDS011;18374;51.136;3.502;2022-10-16T01:05:43;4.10;;;1.50;;
31798;SDS011;18374;51.136;3.502;2022-10-16T01:08:45;2.75;;;1.10;;
31798;SDS011;18374;51.136;3.502;2022-10-16T01:17:01;1.33;;;1.20;;
31798;SDS011;18374;51.136;3.502;2022-10-16T01:19:49;4.95;;;1.10;;
31798;SDS011;18374;51.136;3.502;2022-10-16T01:22:31;2.95;;;1.17;;
31798;SDS011;18374;51.136;3.502;2022-10-16T01:28:20;1.45;;;1.05;;
31798;SDS011;18374;51.136;3.502;2022-10-16T01:30:56;2.35;;;1.30;;
31798;SDS011;18374;51.136;3.502;2022-10-16T01:33:43;3.28;;;1.27;;
31798;SDS011;18374;51.136;3.502;2022-10-16T01:36:22;3.67;;;1.40;;
31798;SDS011;18374;51.136;3.502;2022-10-16T01:38:56;2.03;;;1.42;;
31798;SDS011;18374;51.136;3.502;2022-10-16T01:41:31;1.35;;;1.10;;
31798;SDS011;18374;51.136;3.502;2022-10-16T01:44:06;2.65;;;1.30;;
31798;SDS011;18374;51.136;3.502;2022-10-16T01:46:47;1.23;;;1.13;;
31798;SDS011;18374;51.136;3.502;2022-10-16T01:49:18;2.45;;;1.13;;
31798;SDS011;18374;51.136;3.502;2022-10-16T01:51:52;6.63;;;1.50;;
31798;SDS011;18374;51.136;3.502;2022-10-16T01:54:25;1.60;;;1.20;;
31798;SDS011;18374;51.136;3.502;2022-10-16T01:56:57;2.88;;;1.45;;
31798;SDS011;18374;51.136;3.502;2022-10-16T01:59:29;1.83;;;1.40;;
31798;SDS011;18374;51.136;3.502;2022-10-16T02:02:06;2.42;;;1.42;;
31798;SDS011;18374;51.136;3.502;2022-10-16T02:04:38;3.17;;;1.60;;
31798;SDS011;18374;51.136;3.502;2022-10-16T02:09:43;4.10;;;1.83;;
31798;SDS011;18374;51.136;3.502;2022-10-16T02:12:31;5.53;;;1.35;;
31798;SDS011;18374;51.136;3.502;2022-10-16T02:18:10;1.75;;;1.40;;
31798;SDS011;18374;51.136;3.502;2022-10-16T02:21:03;2.58;;;1.50;;
31798;SDS011;18374;51.136;3.502;2022-10-16T02:23:32;3.05;;;1.30;;
31798;SDS011;18374;51.136;3.502;2022-10-16T02:26:32;2.20;;;1.45;;
31798;SDS011;18374;51.136;3.502;2022-10-16T02:29:10;3.60;;;1.80;;
31798;SDS011;18374;51.136;3.502;2022-10-16T02:31:43;4.22;;;1.40;;
31798;SDS011;18374;51.136;3.502;2022-10-16T02:34:18;3.33;;;1.30;;
31798;SDS011;18374;51.136;3.502;2022-10-16T02:36:48;4.00;;;1.50;;
31798;SDS011;18374;51.136;3.502;2022-10-16T02:39:17;4.05;;;1.55;;
31798;SDS011;18374;51.136;3.502;2022-10-16T02:41:47;2.75;;;1.60;;
31798;SDS011;18374;51.136;3.502;2022-10-16T02:44:15;4.25;;;1.00;;
31798;SDS011;18374;51.136;3.502;2022-10-16T02:46:42;2.38;;;1.65;;
31798;SDS011;18374;51.136;3.502;2022-10-16T02:49:10;2.40;;;1.50;;
31798;SDS011;18374;51.136;3.502;2022-10-16T02:51:38;3.95;;;1.90;;
31798;SDS011;18374;51.136;3.502;2022-10-16T02:54:06;2.47;;;1.60;;
31798;SDS011;18374;51.136;3.502;2022-10-16T02:56:33;3.42;;;1.35;;
31798;SDS011;18374;51.136;3.502;2022-10-16T02:59:01;4.07;;;1.90;;
31798;SDS011;18374;51.136;3.502;2022-10-16T03:01:29;4.82;;;1.63;;
31798;SDS011;18374;51.136;3.502;2022-10-16T03:03:57;2.55;;;1.50;;
31798;SDS011;18374;51.136;3.502;2022-10-16T03:06:25;1.90;;;1.60;;
31798;SDS011;18374;51.136;3.502;2022-10-16T03:08:54;9.60;;;2.00;;
31798;SDS011;18374;51.136;3.502;2022-10-16T03:11:22;3.63;;;1.77;;
31798;SDS011;18374;51.136;3.502;2022-10-16T03:13:50;2.80;;;1.50;;
31798;SDS011;18374;51.136;3.502;2022-10-16T03:16:19;5.35;;;2.10;;
31798;SDS011;18374;51.136;3.502;2022-10-16T03:18:50;4.22;;;1.70;;
31798;SDS011;18374;51.136;3.502;2022-10-16T03:21:19;4.43;;;2.28;;
31798;SDS011;18374;51.136;3.502;2022-10-16T03:23:49;4.65;;;2.50;;
31798;SDS011;18374;51.136;3.502;2022-10-16T03:26:16;4.75;;;2.80;;
31798;SDS011;18374;51.136;3.502;2022-10-16T03:28:44;6.53;;;2.80;;
31798;SDS011;18374;51.136;3.502;2022-10-16T03:31:12;2.60;;;2.40;;
31798;SDS011;18374;51.136;3.502;2022-10-16T03:33:39;4.82;;;2.70;;
31798;SDS011;18374;51.136;3.502;2022-10-16T03:36:07;3.15;;;2.42;;
31798;SDS011;18374;51.136;3.502;2022-10-16T03:38:35;7.00;;;2.97;;
31798;SDS011;18374;51.136;3.502;2022-10-16T03:41:03;5.07;;;2.35;;
31798;SDS011;18374;51.136;3.502;2022-10-16T03:43:31;3.95;;;2.20;;
31798;SDS011;18374;51.136;3.502;2022-10-16T03:45:58;4.03;;;2.05;;
31798;SDS011;18374;51.136;3.502;2022-10-16T03:48:26;4.32;;;1.80;;
31798;SDS011;18374;51.136;3.502;2022-10-16T03:50:54;12.43;;;2.20;;
31798;SDS011;18374;51.136;3.502;2022-10-16T03:53:22;6.72;;;2.17;;
31798;SDS011;18374;51.136;3.502;2022-10-16T03:55:49;7.75;;;1.83;;
31798;SDS011;18374;51.136;3.502;2022-10-16T03:58:17;4.32;;;1.88;;
31798;SDS011;18374;51.136;3.502;2022-10-16T04:00:46;2.08;;;1.23;;
31798;SDS011;18374;51.136;3.502;2022-10-16T04:03:15;4.38;;;2.00;;
31798;SDS011;18374;51.136;3.502;2022-10-16T04:05:44;5.28;;;1.90;;
31798;SDS011;18374;51.136;3.502;2022-10-16T04:08:11;7.15;;;2.72;;
31798;SDS011;18374;51.136;3.502;2022-10-16T04:10:39;4.63;;;1.70;;
31798;SDS011;18374;51.136;3.502;2022-10-16T04:13:09;4.60;;;1.58;;
31798;SDS011;18374;51.136;3.502;2022-10-16T04:15:38;5.22;;;1.75;;
31798;SDS011;18374;51.136;3.502;2022-10-16T04:18:06;6.28;;;2.25;;
31798;SDS011;18374;51.136;3.502;2022-10-16T04:20:34;6.93;;;1.83;;
31798;SDS011;18374;51.136;3.502;2022-10-16T04:23:01;3.63;;;1.50;;
31798;SDS011;18374;51.136;3.502;2022-10-16T04:25:30;3.45;;;1.65;;
31798;SDS011;18374;51.136;3.502;2022-10-16T04:28:04;2.03;;;1.33;;
31798;SDS011;18374;51.136;3.502;2022-10-16T04:30:32;1.65;;;1.33;;
31798;SDS011;18374;51.136;3.502;2022-10-16T04:33:00;5.57;;;2.00;;
31798;SDS011;18374;51.136;3.502;2022-10-16T04:35:28;5.38;;;1.50;;
31798;SDS011;18374;51.136;3.502;2022-10-16T04:37:59;4.13;;;1.50;;
31798;SDS011;18374;51.136;3.502;2022-10-16T04:40:27;3.33;;;1.42;;
31798;SDS011;18374;51.136;3.502;2022-10-16T04:42:54;3.85;;;1.60;;
31798;SDS011;18374;51.136;3.502;2022-10-16T04:45:22;2.25;;;1.23;;
31798;SDS011;18374;51.136;3.502;2022-10-16T04:47:50;2.40;;;1.60;;
31798;SDS011;18374;51.136;3.502;2022-10-16T04:50:18;7.03;;;1.80;;
31798;SDS011;18374;51.136;3.502;2022-10-16T04:53:00;5.25;;;1.92;;
31798;SDS011;18374;51.136;3.502;2022-10-16T04:55:30;4.43;;;1.60;;
31798;SDS011;18374;51.136;3.502;2022-10-16T04:57:58;4.30;;;1.52;;
31798;SDS011;18374;51.136;3.502;2022-10-16T05:00:26;1.40;;;1.30;;
31798;SDS011;18374;51.136;3.502;2022-10-16T05:02:54;4.57;;;1.35;;
31798;SDS011;18374;51.136;3.502;2022-10-16T05:05:22;2.47;;;1.38;;
31798;SDS011;18374;51.136;3.502;2022-10-16T05:07:51;6.45;;;1.38;;
31798;SDS011;18374;51.136;3.502;2022-10-16T05:10:19;2.92;;;1.23;;
31798;SDS011;18374;51.136;3.502;2022-10-16T05:12:46;4.75;;;1.70;;
31798;SDS011;18374;51.136;3.502;2022-10-16T05:15:14;5.65;;;1.75;;
31798;SDS011;18374;51.136;3.502;2022-10-16T05:17:42;4.18;;;1.80;;
31798;SDS011;18374;51.136;3.502;2022-10-16T05:20:12;2.78;;;1.80;;
31798;SDS011;18374;51.136;3.502;2022-10-16T05:22:40;4.90;;;1.70;;
31798;SDS011;18374;51.136;3.502;2022-10-16T05:25:08;2.75;;;1.50;;
31798;SDS011;18374;51.136;3.502;2022-10-16T05:27:35;5.38;;;1.80;;
31798;SDS011;18374;51.136;3.502;2022-10-16T05:30:04;7.43;;;1.92;;
31798;SDS011;18374;51.136;3.502;2022-10-16T05:32:41;7.55;;;1.77;;
31798;SDS011;18374;51.136;3.502;2022-10-16T05:35:15;2.78;;;1.40;;
31798;SDS011;18374;51.136;3.502;2022-10-16T05:37:44;6.70;;;1.58;;
31798;SDS011;18374;51.136;3.502;2022-10-16T05:40:12;2.53;;;1.65;;
31798;SDS011;18374;51.136;3.502;2022-10-16T05:42:40;3.10;;;1.98;;
31798;SDS011;18374;51.136;3.502;2022-10-16T05:45:09;2.63;;;1.52;;
31798;SDS011;18374;51.136;3.502;2022-10-16T05:47:39;3.97;;;1.60;;
31798;SDS011;18374;51.136;3.502;2022-10-16T05:50:07;4.05;;;1.52;;
31798;SDS011;18374;51.136;3.502;2022-10-16T05:52:35;2.55;;;1.48;;
31798;SDS011;18374;51.136;3.502;2022-10-16T05:55:03;6.20;;;1.90;;
31798;SDS011;18374;51.136;3.502;2022-10-16T05:57:31;4.60;;;1.80;;
31798;SDS011;18374;51.136;3.502;2022-10-16T05:59:59;8.45;;;1.92;;
31798;SDS011;18374;51.136;3.502;2022-10-16T06:02:26;3.20;;;1.92;;
31798;SDS011;18374;51.136;3.502;2022-10-16T06:04:54;2.42;;;1.50;;
31798;SDS011;18374;51.136;3.502;2022-10-16T06:07:22;3.92;;;1.85;;
31798;SDS011;18374;51.136;3.502;2022-10-16T06:09:51;5.53;;;1.80;;
31798;SDS011;18374;51.136;3.502;2022-10-16T06:12:20;5.70;;;1.60;;
31798;SDS011;18374;51.136;3.502;2022-10-16T06:14:48;7.20;;;2.15;;
31798;SDS011;18374;51.136;3.502;2022-10-16T06:17:15;6.80;;;1.63;;
31798;SDS011;18374;51.136;3.502;2022-10-16T06:19:43;3.15;;;1.60;;
31798;SDS011;18374;51.136;3.502;2022-10-16T06:22:17;5.15;;;2.03;;
31798;SDS011;18374;51.136;3.502;2022-10-16T06:24:45;6.53;;;1.88;;
31798;SDS011;18374;51.136;3.502;2022-10-16T06:27:17;5.80;;;2.03;;
31798;SDS011;18374;51.136;3.502;2022-10-16T06:29:46;8.30;;;2.05;;
31798;SDS011;18374;51.136;3.502;2022-10-16T06:32:17;3.63;;;1.60;;
31798;SDS011;18374;51.136;3.502;2022-10-16T06:34:48;3.50;;;1.50;;
31798;SDS011;18374;51.136;3.502;2022-10-16T06:37:16;8.35;;;1.60;;
31798;SDS011;18374;51.136;3.502;2022-10-16T06:39:43;5.03;;;1.65;;
31798;SDS011;18374;51.136;3.502;2022-10-16T06:42:13;3.67;;;1.60;;
31798;SDS011;18374;51.136;3.502;2022-10-16T06:44:42;4.75;;;1.90;;
31798;SDS011;18374;51.136;3.502;2022-10-16T06:47:10;5.68;;;1.75;;
31798;SDS011;18374;51.136;3.502;2022-10-16T06:49:38;6.00;;;1.90;;
31798;SDS011;18374;51.136;3.502;2022-10-16T06:52:06;4.47;;;1.90;;
31798;SDS011;18374;51.136;3.502;2022-10-16T06:54:34;4.13;;;1.63;;
31798;SDS011;18374;51.136;3.502;2022-10-16T06:57:08;5.15;;;1.60;;
31798;SDS011;18374;51.136;3.502;2022-10-16T06:59:35;6.20;;;1.80;;
31798;SDS011;18374;51.136;3.502;2022-10-16T07:02:03;5.82;;;2.17;;
31798;SDS011;18374;51.136;3.502;2022-10-16T07:04:31;4.70;;;1.60;;
31798;SDS011;18374;51.136;3.502;2022-10-16T07:07:00;2.55;;;1.40;;
31798;SDS011;18374;51.136;3.502;2022-10-16T07:09:32;8.13;;;1.75;;
31798;SDS011;18374;51.136;3.502;2022-10-16T07:12:02;7.40;;;1.63;;
31798;SDS011;18374;51.136;3.502;2022-10-16T07:14:30;5.28;;;1.75;;
31798;SDS011;18374;51.136;3.502;2022-10-16T07:16:57;7.30;;;2.40;;
31798;SDS011;18374;51.136;3.502;2022-10-16T07:19:25;5.20;;;2.00;;
31798;SDS011;18374;51.136;3.502;2022-10-16T07:21:57;4.88;;;2.03;;
31798;SDS011;18374;51.136;3.502;2022-10-16T07:24:26;6.55;;;1.95;;
31798;SDS011;18374;51.136;3.502;2022-10-16T07:26:53;7.53;;;1.80;;
31798;SDS011;18374;51.136;3.502;2022-10-16T07:29:21;4.35;;;2.00;;
31798;SDS011;18374;51.136;3.502;2022-10-16T07:31:49;8.70;;;2.15;;
31798;SDS011;18374;51.136;3.502;2022-10-16T07:34:17;8.15;;;2.00;;
31798;SDS011;18374;51.136;3.502;2022-10-16T07:36:49;7.20;;;1.95;;
31798;SDS011;18374;51.136;3.502;2022-10-16T07:39:36;7.07;;;2.33;;
31798;SDS011;18374;51.136;3.502;2022-10-16T07:42:03;5.00;;;2.05;;
31798;SDS011;18374;51.136;3.502;2022-10-16T07:44:31;5.38;;;1.83;;
31798;SDS011;18374;51.136;3.502;2022-10-16T07:47:04;7.88;;;2.00;;
31798;SDS011;18374;51.136;3.502;2022-10-16T07:49:37;7.30;;;2.10;;
31798;SDS011;18374;51.136;3.502;2022-10-16T07:52:05;5.53;;;2.03;;
31798;SDS011;18374;51.136;3.502;2022-10-16T07:54:36;5.28;;;2.00;;
31798;SDS011;18374;51.136;3.502;2022-10-16T07:57:04;4.75;;;1.77;;
31798;SDS011;18374;51.136;3.502;2022-10-16T07:59:34;6.60;;;2.13;;
31798;SDS011;18374;51.136;3.502;2022-10-16T08:02:03;5.50;;;1.70;;
31798;SDS011;18374;51.136;3.502;2022-10-16T08:04:31;4.13;;;1.73;;
31798;SDS011;18374;51.136;3.502;2022-10-16T08:06:59;6.80;;;2.10;;
31798;SDS011;18374;51.136;3.502;2022-10-16T08:09:27;3.92;;;2.40;;
31798;SDS011;18374;51.136;3.502;2022-10-16T08:12:04;6.72;;;1.80;;
31798;SDS011;18374;51.136;3.502;2022-10-16T08:14:44;8.38;;;2.17;;
31798;SDS011;18374;51.136;3.502;2022-10-16T08:17:14;6.40;;;1.90;;
31798;SDS011;18374;51.136;3.502;2022-10-16T08:19:47;4.78;;;1.63;;
31798;SDS011;18374;51.136;3.502;2022-10-16T08:22:25;7.57;;;1.77;;
31798;SDS011;18374;51.136;3.502;2022-10-16T08:24:55;8.40;;;2.15;;
31798;SDS011;18374;51.136;3.502;2022-10-16T08:27:23;3.95;;;2.20;;
31798;SDS011;18374;51.136;3.502;2022-10-16T08:29:53;8.90;;;1.98;;
31798;SDS011;18374;51.136;3.502;2022-10-16T08:32:28;6.57;;;1.80;;
31798;SDS011;18374;51.136;3.502;2022-10-16T08:35:06;4.65;;;1.60;;
31798;SDS011;18374;51.136;3.502;2022-10-16T08:37:36;8.35;;;1.65;;
31798;SDS011;18374;51.136;3.502;2022-10-16T08:40:06;8.13;;;1.85;;
31798;SDS011;18374;51.136;3.502;2022-10-16T08:48:48;7.35;;;1.52;;
31798;SDS011;18374;51.136;3.502;2022-10-16T08:51:27;4.63;;;1.85;;
31798;SDS011;18374;51.136;3.502;2022-10-16T08:53:59;8.48;;;1.52;;
31798;SDS011;18374;51.136;3.502;2022-10-16T08:56:31;5.22;;;1.35;;
31798;SDS011;18374;51.136;3.502;2022-10-16T08:59:00;5.57;;;1.52;;
31798;SDS011;18374;51.136;3.502;2022-10-16T09:01:50;8.02;;;1.95;;
31798;SDS011;18374;51.136;3.502;2022-10-16T09:07:46;6.07;;;1.53;;
31798;SDS011;18374;51.136;3.502;2022-10-16T09:10:43;8.45;;;1.67;;
31798;SDS011;18374;51.136;3.502;2022-10-16T09:13:55;6.20;;;2.30;;
31798;SDS011;18374;51.136;3.502;2022-10-16T09:20:20;5.45;;;1.50;;
31798;SDS011;18374;51.136;3.502;2022-10-16T09:23:25;6.30;;;1.60;;
31798;SDS011;18374;51.136;3.502;2022-10-16T09:25:58;4.28;;;1.30;;
31798;SDS011;18374;51.136;3.502;2022-10-16T09:28:26;10.02;;;1.73;;
31798;SDS011;18374;51.136;3.502;2022-10-16T09:30:54;6.07;;;1.83;;
31798;SDS011;18374;51.136;3.502;2022-10-16T09:33:23;8.15;;;2.05;;
31798;SDS011;18374;51.136;3.502;2022-10-16T09:35:56;8.27;;;1.80;;
31798;SDS011;18374;51.136;3.502;2022-10-16T09:38:32;10.27;;;2.33;;
31798;SDS011;18374;51.136;3.502;2022-10-16T09:41:03;7.97;;;1.90;;
31798;SDS011;18374;51.136;3.502;2022-10-16T09:46:22;12.00;;;2.20;;
31798;SDS011;18374;51.136;3.502;2022-10-16T09:51:45;12.25;;;1.77;;
31798;SDS011;18374;51.136;3.502;2022-10-16T09:54:15;4.68;;;1.52;;
31798;SDS011;18374;51.136;3.502;2022-10-16T09:56:48;9.05;;;2.55;;
31798;SDS011;18374;51.136;3.502;2022-10-16T09:59:23;9.73;;;1.92;;
31798;SDS011;18374;51.136;3.502;2022-10-16T10:01:56;6.90;;;2.30;;
31798;SDS011;18374;51.136;3.502;2022-10-16T10:04:52;8.90;;;1.90;;
31798;SDS011;18374;51.136;3.502;2022-10-16T10:07:25;7.88;;;2.00;;
31798;SDS011;18374;51.136;3.502;2022-10-16T10:10:02;6.95;;;1.88;;
31798;SDS011;18374;51.136;3.502;2022-10-16T10:12:32;10.27;;;2.13;;
31798;SDS011;18374;51.136;3.502;2022-10-16T10:15:06;9.13;;;2.72;;
31798;SDS011;18374;51.136;3.502;2022-10-16T10:17:45;11.68;;;2.40;;
31798;SDS011;18374;51.136;3.502;2022-10-16T10:20:30;10.85;;;2.10;;
31798;SDS011;18374;51.136;3.502;2022-10-16T10:23:13;12.30;;;2.75;;
31798;SDS011;18374;51.136;3.502;2022-10-16T10:35:32;5.93;;;1.88;;
31798;SDS011;18374;51.136;3.502;2022-10-16T10:38:40;10.40;;;1.77;;
31798;SDS011;18374;51.136;3.502;2022-10-16T10:51:12;9.57;;;1.60;;
31798;SDS011;18374;51.136;3.502;2022-10-16T10:59:23;7.05;;;1.70;;
31798;SDS011;18374;51.136;3.502;2022-10-16T11:08:06;6.78;;;1.58;;
31798;SDS011;18374;51.136;3.502;2022-10-16T11:10:58;6.05;;;1.52;;
31798;SDS011;18374;51.136;3.502;2022-10-16T11:16:27;10.80;;;2.28;;
31798;SDS011;18374;51.136;3.502;2022-10-16T11:19:04;7.90;;;1.73;;
31798;SDS011;18374;51.136;3.502;2022-10-16T11:22:12;6.65;;;1.50;;
31798;SDS011;18374;51.136;3.502;2022-10-16T11:24:53;7.43;;;2.03;;
31798;SDS011;18374;51.136;3.502;2022-10-16T11:34:01;5.47;;;1.40;;
31798;SDS011;18374;51.136;3.502;2022-10-16T11:37:20;9.02;;;1.63;;
31798;SDS011;18374;51.136;3.502;2022-10-16T11:40:22;8.48;;;1.83;;
31798;SDS011;18374;51.136;3.502;2022-10-16T11:43:11;9.32;;;1.60;;
31798;SDS011;18374;51.136;3.502;2022-10-16T11:45:50;7.63;;;1.90;;
31798;SDS011;18374;51.136;3.502;2022-10-16T11:48:27;5.78;;;1.38;;
31798;SDS011;18374;51.136;3.502;2022-10-16T11:51:08;10.55;;;1.80;;
31798;SDS011;18374;51.136;3.502;2022-10-16T11:53:55;8.65;;;1.33;;
31798;SDS011;18374;51.136;3.502;2022-10-16T11:56:27;9.88;;;1.17;;
31798;SDS011;18374;51.136;3.502;2022-10-16T11:59:01;5.38;;;1.30;;
31798;SDS011;18374;51.136;3.502;2022-10-16T12:01:38;5.80;;;1.20;;
31798;SDS011;18374;51.136;3.502;2022-10-16T12:07:14;7.50;;;1.55;;
31798;SDS011;18374;51.136;3.502;2022-10-16T12:09:48;4.35;;;1.50;;
31798;SDS011;18374;51.136;3.502;2022-10-16T12:12:23;3.72;;;1.67;;
31798;SDS011;18374;51.136;3.502;2022-10-16T12:18:23;8.27;;;1.65;;
31798;SDS011;18374;51.136;3.502;2022-10-16T12:20:58;7.55;;;2.17;;
31798;SDS011;18374;51.136;3.502;2022-10-16T12:23:54;6.85;;;1.92;;
31798;SDS011;18374;51.136;3.502;2022-10-16T12:26:29;6.07;;;1.60;;
31798;SDS011;18374;51.136;3.502;2022-10-16T12:32:36;6.85;;;1.75;;
31798;SDS011;18374;51.136;3.502;2022-10-16T12:35:20;12.00;;;1.90;;
31798;SDS011;18374;51.136;3.502;2022-10-16T12:37:53;11.25;;;1.55;;
31798;SDS011;18374;51.136;3.502;2022-10-16T12:40:31;6.05;;;1.30;;
31798;SDS011;18374;51.136;3.502;2022-10-16T12:43:11;4.72;;;1.00;;
31798;SDS011;18374;51.136;3.502;2022-10-16T12:46:00;6.38;;;1.30;;
31798;SDS011;18374;51.136;3.502;2022-10-16T12:51:54;6.22;;;1.15;;
31798;SDS011;18374;51.136;3.502;2022-10-16T12:54:36;6.28;;;1.55;;
31798;SDS011;18374;51.136;3.502;2022-10-16T13:03:44;4.88;;;1.10;;
31798;SDS011;18374;51.136;3.502;2022-10-16T13:15:19;3.83;;;1.00;;
31798;SDS011;18374;51.136;3.502;2022-10-16T13:29:31;4.55;;;1.10;;
31798;SDS011;18374;51.136;3.502;2022-10-16T13:32:01;3.92;;;1.10;;
31798;SDS011;18374;51.136;3.502;2022-10-16T13:34:53;5.05;;;1.20;;
31798;SDS011;18374;51.136;3.502;2022-10-16T13:37:34;7.70;;;1.15;;
31798;SDS011;18374;51.136;3.502;2022-10-16T13:40:22;3.47;;;0.85;;
31798;SDS011;18374;51.136;3.502;2022-10-16T13:46:37;3.75;;;1.00;;
31798;SDS011;18374;51.136;3.502;2022-10-16T13:49:36;6.25;;;0.80;;
31798;SDS011;18374;51.136;3.502;2022-10-16T13:52:34;1.98;;;0.80;;
31798;SDS011;18374;51.136;3.502;2022-10-16T13:55:16;2.13;;;0.90;;
31798;SDS011;18374;51.136;3.502;2022-10-16T13:57:46;2.80;;;0.82;;
31798;SDS011;18374;51.136;3.502;2022-10-16T14:00:22;2.70;;;0.80;;
31798;SDS011;18374;51.136;3.502;2022-10-16T14:03:04;6.60;;;1.08;;
31798;SDS011;18374;51.136;3.502;2022-10-16T14:06:06;3.55;;;1.20;;
31798;SDS011;18374;51.136;3.502;2022-10-16T14:11:49;7.45;;;1.10;;
31798;SDS011;18374;51.136;3.502;2022-10-16T14:14:48;3.00;;;0.85;;
31798;SDS011;18374;51.136;3.502;2022-10-16T14:17:27;4.80;;;1.10;;
31798;SDS011;18374;51.136;3.502;2022-10-16T14:20:14;5.05;;;1.05;;
31798;SDS011;18374;51.136;3.502;2022-10-16T14:22:43;4.57;;;1.10;;
31798;SDS011;18374;51.136;3.502;2022-10-16T14:25:23;4.50;;;1.00;;
31798;SDS011;18374;51.136;3.502;2022-10-16T14:36:10;7.05;;;1.50;;
31798;SDS011;18374;51.136;3.502;2022-10-16T14:38:47;2.38;;;1.05;;
31798;SDS011;18374;51.136;3.502;2022-10-16T14:41:30;2.75;;;1.25;;
31798;SDS011;18374;51.136;3.502;2022-10-16T14:44:18;3.42;;;1.33;;
31798;SDS011;18374;51.136;3.502;2022-10-16T14:46:57;5.80;;;1.20;;
31798;SDS011;18374;51.136;3.502;2022-10-16T14:49:29;3.00;;;1.20;;
31798;SDS011;18374;51.136;3.502;2022-10-16T14:51:58;2.08;;;1.23;;
31798;SDS011;18374;51.136;3.502;2022-10-16T14:54:28;5.50;;;3.28;;
31798;SDS011;18374;51.136;3.502;2022-10-16T14:56:56;4.15;;;1.90;;
31798;SDS011;18374;51.136;3.502;2022-10-16T15:02:37;5.40;;;1.00;;
31798;SDS011;18374;51.136;3.502;2022-10-16T15:05:17;2.13;;;0.80;;
31798;SDS011;18374;51.136;3.502;2022-10-16T15:07:57;1.92;;;0.70;;
31798;SDS011;18374;51.136;3.502;2022-10-16T15:10:28;0.88;;;0.55;;
31798;SDS011;18374;51.136;3.502;2022-10-16T15:13:03;1.10;;;0.70;;
31798;SDS011;18374;51.136;3.502;2022-10-16T15:15:39;0.93;;;0.63;;
31798;SDS011;18374;51.136;3.502;2022-10-16T15:18:10;2.05;;;0.70;;
31798;SDS011;18374;51.136;3.502;2022-10-16T15:20:44;3.95;;;0.90;;
31798;SDS011;18374;51.136;3.502;2022-10-16T15:23:37;3.78;;;0.90;;
31798;SDS011;18374;51.136;3.502;2022-10-16T15:26:15;1.80;;;0.50;;
31798;SDS011;18374;51.136;3.502;2022-10-16T15:29:40;2.33;;;0.68;;
31798;SDS011;18374;51.136;3.502;2022-10-16T15:32:24;1.13;;;0.55;;
31798;SDS011;18374;51.136;3.502;2022-10-16T15:34:54;2.72;;;0.98;;
31798;SDS011;18374;51.136;3.502;2022-10-16T15:37:47;2.33;;;0.80;;
31798;SDS011;18374;51.136;3.502;2022-10-16T15:40:29;1.33;;;0.63;;
31798;SDS011;18374;51.136;3.502;2022-10-16T15:43:04;2.30;;;0.60;;
31798;SDS011;18374;51.136;3.502;2022-10-16T15:46:01;1.08;;;0.57;;
31798;SDS011;18374;51.136;3.502;2022-10-16T15:48:40;1.60;;;0.60;;
31798;SDS011;18374;51.136;3.502;2022-10-16T15:51:29;2.28;;;0.65;;
31798;SDS011;18374;51.136;3.502;2022-10-16T15:54:03;2.38;;;1.15;;
31798;SDS011;18374;51.136;3.502;2022-10-16T15:56:54;2.25;;;1.00;;
31798;SDS011;18374;51.136;3.502;2022-10-16T15:59:24;2.72;;;1.00;;
31798;SDS011;18374;51.136;3.502;2022-10-16T16:02:02;1.95;;;1.10;;
31798;SDS011;18374;51.136;3.502;2022-10-16T16:04:34;2.13;;;1.10;;
31798;SDS011;18374;51.136;3.502;2022-10-16T16:07:10;3.65;;;1.17;;
31798;SDS011;18374;51.136;3.502;2022-10-16T16:09:39;1.55;;;0.70;;
31798;SDS011;18374;51.136;3.502;2022-10-16T16:12:16;4.28;;;1.00;;
31798;SDS011;18374;51.136;3.502;2022-10-16T16:14:58;2.85;;;1.00;;
31798;SDS011;18374;51.136;3.502;2022-10-16T16:17:40;1.30;;;0.85;;
31798;SDS011;18374;51.136;3.502;2022-10-16T16:20:13;5.18;;;1.10;;
31798;SDS011;18374;51.136;3.502;2022-10-16T16:22:45;4.60;;;0.95;;
31798;SDS011;18374;51.136;3.502;2022-10-16T16:25:13;2.80;;;0.90;;
31798;SDS011;18374;51.136;3.502;2022-10-16T16:27:41;2.38;;;0.90;;
31798;SDS011;18374;51.136;3.502;2022-10-16T16:30:11;6.13;;;1.25;;
31798;SDS011;18374;51.136;3.502;2022-10-16T16:32:46;2.38;;;1.00;;
31798;SDS011;18374;51.136;3.502;2022-10-16T16:35:13;3.15;;;1.00;;
31798;SDS011;18374;51.136;3.502;2022-10-16T16:37:41;2.17;;;1.00;;
31798;SDS011;18374;51.136;3.502;2022-10-16T16:40:09;6.88;;;1.48;;
31798;SDS011;18374;51.136;3.502;2022-10-16T16:42:37;1.65;;;1.10;;
31798;SDS011;18374;51.136;3.502;2022-10-16T16:45:05;2.22;;;1.30;;
31798;SDS011;18374;51.136;3.502;2022-10-16T16:47:33;6.00;;;1.48;;
31798;SDS011;18374;51.136;3.502;2022-10-16T16:50:01;5.18;;;1.52;;
31798;SDS011;18374;51.136;3.502;2022-10-16T16:52:31;2.22;;;1.60;;
31798;SDS011;18374;51.136;3.502;2022-10-16T16:55:01;5.60;;;1.20;;
31798;SDS011;18374;51.136;3.502;2022-10-16T16:57:29;6.88;;;1.52;;
31798;SDS011;18374;51.136;3.502;2022-10-16T16:59:57;2.00;;;1.70;;
31798;SDS011;18374;51.136;3.502;2022-10-16T17:02:24;2.53;;;1.50;;
31798;SDS011;18374;51.136;3.502;2022-10-16T17:04:52;4.20;;;1.55;;
31798;SDS011;18374;51.136;3.502;2022-10-16T17:07:20;4.05;;;1.20;;
31798;SDS011;18374;51.136;3.502;2022-10-16T17:09:52;5.18;;;1.63;;
31798;SDS011;18374;51.136;3.502;2022-10-16T17:12:22;6.15;;;1.83;;
31798;SDS011;18374;51.136;3.502;2022-10-16T17:14:50;5.00;;;1.75;;
31798;SDS011;18374;51.136;3.502;2022-10-16T17:17:18;3.72;;;1.73;;
31798;SDS011;18374;51.136;3.502;2022-10-16T17:19:51;4.28;;;1.83;;
31798;SDS011;18374;51.136;3.502;2022-10-16T17:22:19;8.27;;;1.92;;
31798;SDS011;18374;51.136;3.502;2022-10-16T17:24:48;3.70;;;1.52;;
31798;SDS011;18374;51.136;3.502;2022-10-16T17:27:18;3.75;;;2.20;;
31798;SDS011;18374;51.136;3.502;2022-10-16T17:29:49;4.78;;;1.77;;
31798;SDS011;18374;51.136;3.502;2022-10-16T17:32:18;3.20;;;1.30;;
31798;SDS011;18374;51.136;3.502;2022-10-16T17:34:52;3.95;;;1.70;;
31798;SDS011;18374;51.136;3.502;2022-10-16T17:37:19;8.65;;;2.13;;
31798;SDS011;18374;51.136;3.502;2022-10-16T17:39:52;4.55;;;2.70;;
31798;SDS011;18374;51.136;3.502;2022-10-16T17:42:19;5.25;;;2.38;;